メインページ
METAR-TAF:

METAR-TAF

空港 :

カトマンズ, ネパール

トリブバン国際空港

緯度: 27-42N, 経度: 085-22E, 海抜: 1337m

現時点の気象観測

当レポートは27分前の11:50(UTC)に作成
西/南西の風 8kt
気温 19°C
湿度 60%
気圧 1018 hPa
視程: 6000m
高度1500ftの雲はほとんどない
高度3000ftの雲は散在している

METAR: VNKT 241150Z 25008KT 6000 FEW015 SCT030 19/11 Q1018 NOSIG

時間: 18:02 (12:17 UTC)

予報

当レポートは1時間17分前の11:00(UTC)に作成
予報は24日の 12時(UTC)から 25日の 12時(UTC)まで有効
西/北西の風 5kt
視程: 6000m
高度2000ftの雲はほとんどない
24日の 14時(UTC)から 24日の 15時(UTC)まで徐々に
変向風 2kt
視程: 4000m
高度1500ftの雲はほとんどない
高度3000ftの雲は散在している
25日の 00時(UTC)から 25日の 02時(UTC)まで徐々に
の風 kt
視程: 3000m
高度1000ftの雲はほとんどない
高度3000ftの雲は散在している
確率 40%
25日の 01時(UTC)から 25日の 03時(UTC)まで
視程: 1000m
25日の 04時(UTC)から 25日の 05時(UTC)まで徐々に
南/南東の風 3kt
視程: 4000m
高度1500ftの雲はほとんどない
高度3000ftの雲は散在している
煙霧
25日の 07時(UTC)から 25日の 09時(UTC)まで徐々に
西の風 8kt
視程: 5000m
高度2000ftの雲はほとんどない
高度3000ftの雲は散在している
確率 40% :
25日の 07時(UTC)から 25日の 12時(UTC)まで一時的に
視程: 5000m
高度2500ftの雲はほとんどない, 積乱雲.
高度10000ftの千切れ雲あり
激しい雷雨, 小雨

TAF: VNKT 241100Z 2412/2512 29005KT 6000 FEW020 BECMG 2414/2415 VRB02KT 4000 BR FEW015 SCT030 BECMG 2500/2502 00000KT 3000 BR FEW010 SCT030 PROB40 2501/2503 1000 BR BECMG 2504/2505 15003KT 4000 HZ FEW015 SCT030 BECMG 2507/2509 26008KT 5000 BR/HZ FEW020 SCT030 PROB40 TEMPO 2507/2512 5000 -TSRA FEW025CB BKN100

4,000以上の空港の気象観測と天気予報(METAR報とTAF報)

利用可能な観測所は地図上に黄色い丸と赤い丸で示す。

丸の上にカーソルを重ねると観測所名を参照できる。

次にクリックすると気象観測と天気予報を参照できる。

マップの切り替え:黒色「×」印の緑ボタンをクリックして拡大、「-」印の緑ボタンをクリックして縮小、緑色の三角印をクリックして隣りの地図に切り替え


METAR-TAF: